sensor_id;sensor_type;location;lat;lon;timestamp;temperature;humidity
32147;DHT22;32190;49.112;8.598;2022-12-07T00:02:10;9.20;63.30
32147;DHT22;32190;49.112;8.598;2022-12-07T00:08:01;9.20;63.40
32147;DHT22;32190;49.112;8.598;2022-12-07T00:13:53;9.20;63.40
32147;DHT22;32190;49.112;8.598;2022-12-07T00:19:45;9.20;63.40
32147;DHT22;32190;49.112;8.598;2022-12-07T00:25:38;9.20;63.40
32147;DHT22;32190;49.112;8.598;2022-12-07T00:31:34;9.10;63.40
32147;DHT22;32190;49.112;8.598;2022-12-07T00:37:28;9.10;63.30
32147;DHT22;32190;49.112;8.598;2022-12-07T00:43:19;9.10;63.30
32147;DHT22;32190;49.112;8.598;2022-12-07T00:49:10;9.20;63.50
32147;DHT22;32190;49.112;8.598;2022-12-07T00:55:00;9.10;63.40
32147;DHT22;32190;49.112;8.598;2022-12-07T01:00:51;9.10;63.40
32147;DHT22;32190;49.112;8.598;2022-12-07T01:06:42;9.10;63.40
32147;DHT22;32190;49.112;8.598;2022-12-07T01:12:33;9.10;63.40
32147;DHT22;32190;49.112;8.598;2022-12-07T01:18:24;9.10;63.30
32147;DHT22;32190;49.112;8.598;2022-12-07T01:24:14;9.10;63.40
32147;DHT22;32190;49.112;8.598;2022-12-07T01:30:07;9.00;63.30
32147;DHT22;32190;49.112;8.598;2022-12-07T01:36:05;9.00;63.30
32147;DHT22;32190;49.112;8.598;2022-12-07T01:41:56;9.00;63.30
32147;DHT22;32190;49.112;8.598;2022-12-07T01:47:51;9.00;63.30
32147;DHT22;32190;49.112;8.598;2022-12-07T01:53:45;9.00;63.40
32147;DHT22;32190;49.112;8.598;2022-12-07T01:59:36;9.00;63.50
32147;DHT22;32190;49.112;8.598;2022-12-07T02:05:27;9.00;63.40
32147;DHT22;32190;49.112;8.598;2022-12-07T02:11:19;8.90;63.30
32147;DHT22;32190;49.112;8.598;2022-12-07T02:17:21;8.90;63.30
32147;DHT22;32190;49.112;8.598;2022-12-07T02:23:20;8.80;63.50
32147;DHT22;32190;49.112;8.598;2022-12-07T02:29:25;8.80;63.50
32147;DHT22;32190;49.112;8.598;2022-12-07T02:35:21;8.80;63.60
32147;DHT22;32190;49.112;8.598;2022-12-07T02:41:34;8.80;63.60
32147;DHT22;32190;49.112;8.598;2022-12-07T02:47:27;8.80;63.70
32147;DHT22;32190;49.112;8.598;2022-12-07T02:53:39;8.80;63.70
32147;DHT22;32190;49.112;8.598;2022-12-07T02:59:41;8.70;63.70
32147;DHT22;32190;49.112;8.598;2022-12-07T03:06:01;8.80;63.60
32147;DHT22;32190;49.112;8.598;2022-12-07T03:12:14;8.70;63.70
32147;DHT22;32190;49.112;8.598;2022-12-07T03:18:07;8.70;63.60
32147;DHT22;32190;49.112;8.598;2022-12-07T03:24:05;8.70;63.50
32147;DHT22;32190;49.112;8.598;2022-12-07T03:30:18;8.70;63.50
32147;DHT22;32190;49.112;8.598;2022-12-07T03:36:35;8.70;63.60
32147;DHT22;32190;49.112;8.598;2022-12-07T03:42:30;8.70;63.60
32147;DHT22;32190;49.112;8.598;2022-12-07T03:48:41;8.70;63.60
32147;DHT22;32190;49.112;8.598;2022-12-07T04:00:42;8.60;63.60
32147;DHT22;32190;49.112;8.598;2022-12-07T04:06:33;8.60;63.70
32147;DHT22;32190;49.112;8.598;2022-12-07T04:12:24;8.60;63.70
32147;DHT22;32190;49.112;8.598;2022-12-07T04:18:14;8.60;63.70
32147;DHT22;32190;49.112;8.598;2022-12-07T04:24:05;8.60;63.70
32147;DHT22;32190;49.112;8.598;2022-12-07T04:29:56;8.60;63.70
32147;DHT22;32190;49.112;8.598;2022-12-07T04:35:47;8.60;63.70
32147;DHT22;32190;49.112;8.598;2022-12-07T04:41:38;8.60;63.60
32147;DHT22;32190;49.112;8.598;2022-12-07T04:47:28;8.60;63.60
32147;DHT22;32190;49.112;8.598;2022-12-07T04:53:19;8.60;63.60
32147;DHT22;32190;49.112;8.598;2022-12-07T04:59:14;8.60;63.60
32147;DHT22;32190;49.112;8.598;2022-12-07T05:05:05;8.50;63.50
32147;DHT22;32190;49.112;8.598;2022-12-07T05:10:56;8.50;63.50
32147;DHT22;32190;49.112;8.598;2022-12-07T05:16:50;8.50;63.50
32147;DHT22;32190;49.112;8.598;2022-12-07T05:22:40;8.50;63.40
32147;DHT22;32190;49.112;8.598;2022-12-07T05:28:31;8.50;63.40
32147;DHT22;32190;49.112;8.598;2022-12-07T05:34:22;8.50;63.40
32147;DHT22;32190;49.112;8.598;2022-12-07T05:40:14;8.50;63.40
32147;DHT22;32190;49.112;8.598;2022-12-07T05:46:04;8.50;63.40
32147;DHT22;32190;49.112;8.598;2022-12-07T05:51:55;8.40;63.40
32147;DHT22;32190;49.112;8.598;2022-12-07T05:57:46;8.50;63.50
32147;DHT22;32190;49.112;8.598;2022-12-07T06:03:57;8.50;63.30
32147;DHT22;32190;49.112;8.598;2022-12-07T06:09:48;8.40;63.30
32147;DHT22;32190;49.112;8.598;2022-12-07T06:15:41;8.40;63.20
32147;DHT22;32190;49.112;8.598;2022-12-07T06:21:32;8.40;63.20
32147;DHT22;32190;49.112;8.598;2022-12-07T06:27:23;8.40;63.20
32147;DHT22;32190;49.112;8.598;2022-12-07T06:33:14;8.40;63.20
32147;DHT22;32190;49.112;8.598;2022-12-07T06:39:05;8.30;63.10
32147;DHT22;32190;49.112;8.598;2022-12-07T06:44:56;8.30;63.10
32147;DHT22;32190;49.112;8.598;2022-12-07T06:50:47;8.30;63.80
32147;DHT22;32190;49.112;8.598;2022-12-07T06:56:38;8.30;63.20
32147;DHT22;32190;49.112;8.598;2022-12-07T07:02:28;8.30;63.10
32147;DHT22;32190;49.112;8.598;2022-12-07T07:08:19;8.30;63.10
32147;DHT22;32190;49.112;8.598;2022-12-07T07:14:10;8.30;63.10
32147;DHT22;32190;49.112;8.598;2022-12-07T07:20:01;8.20;63.10
32147;DHT22;32190;49.112;8.598;2022-12-07T07:25:54;8.20;63.00
32147;DHT22;32190;49.112;8.598;2022-12-07T07:31:45;8.20;63.00
32147;DHT22;32190;49.112;8.598;2022-12-07T07:37:36;8.30;63.20
32147;DHT22;32190;49.112;8.598;2022-12-07T07:43:26;8.20;63.20
32147;DHT22;32190;49.112;8.598;2022-12-07T07:49:17;8.30;63.20
32147;DHT22;32190;49.112;8.598;2022-12-07T07:55:08;8.30;63.20
32147;DHT22;32190;49.112;8.598;2022-12-07T08:01:08;8.30;63.10
32147;DHT22;32190;49.112;8.598;2022-12-07T08:06:58;8.30;63.10
32147;DHT22;32190;49.112;8.598;2022-12-07T08:12:52;8.30;63.20
32147;DHT22;32190;49.112;8.598;2022-12-07T08:19:01;8.30;63.10
32147;DHT22;32190;49.112;8.598;2022-12-07T08:24:51;8.30;63.00
32147;DHT22;32190;49.112;8.598;2022-12-07T08:30:42;8.30;63.00
32147;DHT22;32190;49.112;8.598;2022-12-07T08:36:33;8.30;63.00
32147;DHT22;32190;49.112;8.598;2022-12-07T08:42:23;8.30;62.90
32147;DHT22;32190;49.112;8.598;2022-12-07T08:48:17;8.40;63.10
32147;DHT22;32190;49.112;8.598;2022-12-07T08:54:15;8.40;63.10
32147;DHT22;32190;49.112;8.598;2022-12-07T09:00:07;8.40;63.00
32147;DHT22;32190;49.112;8.598;2022-12-07T09:05:58;8.40;63.10
32147;DHT22;32190;49.112;8.598;2022-12-07T09:11:49;8.40;63.10
32147;DHT22;32190;49.112;8.598;2022-12-07T09:17:39;8.50;63.20
32147;DHT22;32190;49.112;8.598;2022-12-07T09:23:30;8.50;63.10
32147;DHT22;32190;49.112;8.598;2022-12-07T09:29:21;8.60;63.10
32147;DHT22;32190;49.112;8.598;2022-12-07T09:35:11;8.60;63.00
32147;DHT22;32190;49.112;8.598;2022-12-07T09:41:06;8.60;63.00
32147;DHT22;32190;49.112;8.598;2022-12-07T09:46:57;8.70;62.90
32147;DHT22;32190;49.112;8.598;2022-12-07T09:52:50;8.70;63.00
32147;DHT22;32190;49.112;8.598;2022-12-07T09:58:41;8.80;63.10
32147;DHT22;32190;49.112;8.598;2022-12-07T10:04:32;8.80;63.10
32147;DHT22;32190;49.112;8.598;2022-12-07T10:10:30;8.90;63.00
32147;DHT22;32190;49.112;8.598;2022-12-07T10:22:16;8.90;63.00
32147;DHT22;32190;49.112;8.598;2022-12-07T10:33:59;8.90;63.00
32147;DHT22;32190;49.112;8.598;2022-12-07T10:39:56;8.90;63.00
32147;DHT22;32190;49.112;8.598;2022-12-07T10:52:16;8.90;62.80
32147;DHT22;32190;49.112;8.598;2022-12-07T10:58:16;9.00;62.90
32147;DHT22;32190;49.112;8.598;2022-12-07T11:10:45;8.90;62.80
32147;DHT22;32190;49.112;8.598;2022-12-07T11:41:29;9.00;62.90
32147;DHT22;32190;49.112;8.598;2022-12-07T11:47:48;9.10;63.00
32147;DHT22;32190;49.112;8.598;2022-12-07T11:53:56;9.20;62.30
32147;DHT22;32190;49.112;8.598;2022-12-07T11:59:57;9.20;62.70
32147;DHT22;32190;49.112;8.598;2022-12-07T12:05:49;9.20;62.60
32147;DHT22;32190;49.112;8.598;2022-12-07T12:24:09;9.30;62.50
32147;DHT22;32190;49.112;8.598;2022-12-07T12:30:04;9.30;62.50
32147;DHT22;32190;49.112;8.598;2022-12-07T12:42:18;9.30;62.60
32147;DHT22;32190;49.112;8.598;2022-12-07T12:48:35;9.40;62.30
32147;DHT22;32190;49.112;8.598;2022-12-07T12:54:33;9.40;62.30
32147;DHT22;32190;49.112;8.598;2022-12-07T13:00:24;9.40;62.40
32147;DHT22;32190;49.112;8.598;2022-12-07T13:12:19;9.40;62.30
32147;DHT22;32190;49.112;8.598;2022-12-07T13:24:18;9.40;62.30
32147;DHT22;32190;49.112;8.598;2022-12-07T13:30:15;9.40;62.20
32147;DHT22;32190;49.112;8.598;2022-12-07T13:36:15;9.40;62.20
32147;DHT22;32190;49.112;8.598;2022-12-07T13:42:22;9.40;62.20
32147;DHT22;32190;49.112;8.598;2022-12-07T13:48:30;9.40;62.10
32147;DHT22;32190;49.112;8.598;2022-12-07T13:54:22;9.40;62.20
32147;DHT22;32190;49.112;8.598;2022-12-07T14:00:27;9.40;62.30
32147;DHT22;32190;49.112;8.598;2022-12-07T14:06:26;9.40;62.20
32147;DHT22;32190;49.112;8.598;2022-12-07T14:12:17;9.40;62.10
32147;DHT22;32190;49.112;8.598;2022-12-07T14:18:43;9.50;62.20
32147;DHT22;32190;49.112;8.598;2022-12-07T14:24:44;9.40;62.00
32147;DHT22;32190;49.112;8.598;2022-12-07T14:30:34;9.40;62.10
32147;DHT22;32190;49.112;8.598;2022-12-07T14:36:25;9.40;62.30
32147;DHT22;32190;49.112;8.598;2022-12-07T14:42:16;9.30;62.20
32147;DHT22;32190;49.112;8.598;2022-12-07T14:48:14;9.40;62.20
32147;DHT22;32190;49.112;8.598;2022-12-07T14:54:06;9.30;62.10
32147;DHT22;32190;49.112;8.598;2022-12-07T15:00:02;9.30;62.10
32147;DHT22;32190;49.112;8.598;2022-12-07T15:05:52;9.40;62.20
32147;DHT22;32190;49.112;8.598;2022-12-07T15:11:43;9.30;62.10
32147;DHT22;32190;49.112;8.598;2022-12-07T15:17:33;9.30;62.10
32147;DHT22;32190;49.112;8.598;2022-12-07T15:23:24;9.30;62.10
32147;DHT22;32190;49.112;8.598;2022-12-07T15:29:14;9.30;62.00
32147;DHT22;32190;49.112;8.598;2022-12-07T15:35:06;9.20;62.00
32147;DHT22;32190;49.112;8.598;2022-12-07T15:40:57;9.20;61.80
32147;DHT22;32190;49.112;8.598;2022-12-07T15:46:48;9.20;61.90
32147;DHT22;32190;49.112;8.598;2022-12-07T15:52:39;9.20;61.90
32147;DHT22;32190;49.112;8.598;2022-12-07T15:58:31;9.10;61.70
32147;DHT22;32190;49.112;8.598;2022-12-07T16:04:21;9.10;61.80
32147;DHT22;32190;49.112;8.598;2022-12-07T16:10:12;9.10;62.00
32147;DHT22;32190;49.112;8.598;2022-12-07T16:16:05;9.10;62.00
32147;DHT22;32190;49.112;8.598;2022-12-07T16:21:55;9.10;62.00
32147;DHT22;32190;49.112;8.598;2022-12-07T16:27:46;9.00;62.00
32147;DHT22;32190;49.112;8.598;2022-12-07T16:33:38;9.00;61.90
32147;DHT22;32190;49.112;8.598;2022-12-07T16:39:29;9.00;62.10
32147;DHT22;32190;49.112;8.598;2022-12-07T16:45:19;9.00;62.00
32147;DHT22;32190;49.112;8.598;2022-12-07T16:51:12;9.00;62.00
32147;DHT22;32190;49.112;8.598;2022-12-07T16:57:02;9.00;62.00
32147;DHT22;32190;49.112;8.598;2022-12-07T17:02:53;9.00;62.00
32147;DHT22;32190;49.112;8.598;2022-12-07T17:08:45;8.90;61.90
32147;DHT22;32190;49.112;8.598;2022-12-07T17:14:36;8.90;62.00
32147;DHT22;32190;49.112;8.598;2022-12-07T17:20:45;8.90;62.00
32147;DHT22;32190;49.112;8.598;2022-12-07T17:26:36;8.90;62.00
32147;DHT22;32190;49.112;8.598;2022-12-07T17:32:27;8.90;62.00
32147;DHT22;32190;49.112;8.598;2022-12-07T17:38:18;8.80;62.00
32147;DHT22;32190;49.112;8.598;2022-12-07T17:44:14;8.80;62.00
32147;DHT22;32190;49.112;8.598;2022-12-07T17:50:05;8.80;62.00
32147;DHT22;32190;49.112;8.598;2022-12-07T17:55:56;8.80;62.10
32147;DHT22;32190;49.112;8.598;2022-12-07T18:01:47;8.80;62.10
32147;DHT22;32190;49.112;8.598;2022-12-07T18:07:37;8.80;62.00
32147;DHT22;32190;49.112;8.598;2022-12-07T18:13:28;8.80;62.00
32147;DHT22;32190;49.112;8.598;2022-12-07T18:19:27;8.80;62.60
32147;DHT22;32190;49.112;8.598;2022-12-07T18:25:18;8.80;62.00
32147;DHT22;32190;49.112;8.598;2022-12-07T18:31:09;8.80;61.90
32147;DHT22;32190;49.112;8.598;2022-12-07T18:36:59;8.80;61.90
32147;DHT22;32190;49.112;8.598;2022-12-07T18:42:50;8.70;61.90
32147;DHT22;32190;49.112;8.598;2022-12-07T18:48:44;8.80;62.00
32147;DHT22;32190;49.112;8.598;2022-12-07T18:54:35;8.80;62.00
32147;DHT22;32190;49.112;8.598;2022-12-07T19:00:27;8.70;61.90
32147;DHT22;32190;49.112;8.598;2022-12-07T19:06:18;8.80;61.90
32147;DHT22;32190;49.112;8.598;2022-12-07T19:12:11;8.80;61.90
32147;DHT22;32190;49.112;8.598;2022-12-07T19:18:02;8.70;61.90
32147;DHT22;32190;49.112;8.598;2022-12-07T19:23:53;8.70;61.80
32147;DHT22;32190;49.112;8.598;2022-12-07T19:29:45;8.70;61.70
32147;DHT22;32190;49.112;8.598;2022-12-07T19:35:35;8.70;61.80
32147;DHT22;32190;49.112;8.598;2022-12-07T19:41:26;8.70;61.70
32147;DHT22;32190;49.112;8.598;2022-12-07T19:47:26;8.60;61.50
32147;DHT22;32190;49.112;8.598;2022-12-07T19:53:16;8.50;61.50
32147;DHT22;32190;49.112;8.598;2022-12-07T19:59:07;8.50;61.60
32147;DHT22;32190;49.112;8.598;2022-12-07T20:05:00;8.50;61.70
32147;DHT22;32190;49.112;8.598;2022-12-07T20:10:52;8.50;61.70
32147;DHT22;32190;49.112;8.598;2022-12-07T20:16:42;8.40;61.70
32147;DHT22;32190;49.112;8.598;2022-12-07T20:22:36;8.40;61.80
32147;DHT22;32190;49.112;8.598;2022-12-07T20:28:26;8.40;61.90
32147;DHT22;32190;49.112;8.598;2022-12-07T20:34:17;8.30;61.80
32147;DHT22;32190;49.112;8.598;2022-12-07T20:40:08;8.30;61.90
32147;DHT22;32190;49.112;8.598;2022-12-07T20:45:59;8.30;61.90
32147;DHT22;32190;49.112;8.598;2022-12-07T20:51:50;8.30;62.70
32147;DHT22;32190;49.112;8.598;2022-12-07T20:57:40;8.20;61.90
32147;DHT22;32190;49.112;8.598;2022-12-07T21:03:31;8.20;61.90
32147;DHT22;32190;49.112;8.598;2022-12-07T21:09:22;8.20;62.00
32147;DHT22;32190;49.112;8.598;2022-12-07T21:15:16;8.20;61.70
32147;DHT22;32190;49.112;8.598;2022-12-07T21:21:07;8.10;61.80
32147;DHT22;32190;49.112;8.598;2022-12-07T21:26:58;8.10;61.90
32147;DHT22;32190;49.112;8.598;2022-12-07T21:32:49;8.10;61.90
32147;DHT22;32190;49.112;8.598;2022-12-07T21:38:39;8.10;61.90
32147;DHT22;32190;49.112;8.598;2022-12-07T21:44:30;8.00;61.80
32147;DHT22;32190;49.112;8.598;2022-12-07T21:50:21;8.00;61.90
32147;DHT22;32190;49.112;8.598;2022-12-07T21:56:16;8.00;61.90
32147;DHT22;32190;49.112;8.598;2022-12-07T22:02:12;8.00;61.90
32147;DHT22;32190;49.112;8.598;2022-12-07T22:08:04;7.90;61.90
32147;DHT22;32190;49.112;8.598;2022-12-07T22:13:54;7.90;61.90
32147;DHT22;32190;49.112;8.598;2022-12-07T22:20:09;7.90;61.90
32147;DHT22;32190;49.112;8.598;2022-12-07T22:26:07;7.80;61.90
32147;DHT22;32190;49.112;8.598;2022-12-07T22:31:58;7.80;62.10
32147;DHT22;32190;49.112;8.598;2022-12-07T22:37:48;7.80;62.10
32147;DHT22;32190;49.112;8.598;2022-12-07T22:43:39;7.70;62.10
32147;DHT22;32190;49.112;8.598;2022-12-07T22:49:29;7.70;62.10
32147;DHT22;32190;49.112;8.598;2022-12-07T22:55:20;7.70;62.10
32147;DHT22;32190;49.112;8.598;2022-12-07T23:01:12;7.70;62.10
32147;DHT22;32190;49.112;8.598;2022-12-07T23:07:03;7.60;62.00
32147;DHT22;32190;49.112;8.598;2022-12-07T23:12:53;7.60;62.00
32147;DHT22;32190;49.112;8.598;2022-12-07T23:19:02;7.60;62.10
32147;DHT22;32190;49.112;8.598;2022-12-07T23:24:53;7.50;62.00
32147;DHT22;32190;49.112;8.598;2022-12-07T23:30:44;7.50;62.10
32147;DHT22;32190;49.112;8.598;2022-12-07T23:36:34;7.50;62.10
32147;DHT22;32190;49.112;8.598;2022-12-07T23:42:25;7.40;61.90
32147;DHT22;32190;49.112;8.598;2022-12-07T23:48:15;7.40;62.00
32147;DHT22;32190;49.112;8.598;2022-12-07T23:54:06;7.40;62.10
32147;DHT22;32190;49.112;8.598;2022-12-07T23:59:56;7.40;62.10
